createdAt,value
2023-07-25T00:01:17.121Z,18.24
2023-07-25T00:03:44.991Z,18.25
2023-07-25T00:06:12.819Z,18.21
2023-07-25T00:08:40.654Z,18.21
2023-07-25T00:11:14.358Z,18.20
2023-07-25T00:13:42.288Z,18.20
2023-07-25T00:16:11.507Z,18.19
2023-07-25T00:18:39.278Z,18.19
2023-07-25T00:21:07.081Z,18.17
2023-07-25T00:23:34.888Z,18.17
2023-07-25T00:26:02.701Z,18.16
2023-07-25T00:28:30.557Z,18.16
2023-07-25T00:30:58.371Z,18.15
2023-07-25T00:33:27.536Z,18.13
2023-07-25T00:35:55.538Z,18.13
2023-07-25T00:38:23.284Z,18.12
2023-07-25T00:40:51.072Z,18.10
2023-07-25T00:43:18.881Z,18.10
2023-07-25T00:45:46.804Z,18.09
2023-07-25T00:48:15.086Z,18.05
2023-07-25T00:50:45.317Z,18.09
2023-07-25T00:53:15.163Z,18.07
2023-07-25T00:55:43.213Z,18.06
2023-07-25T00:58:11.081Z,18.04
2023-07-25T01:00:40.500Z,18.04
2023-07-25T01:03:08.876Z,18.02
2023-07-25T01:05:40.971Z,18.01
2023-07-25T01:08:10.184Z,18.01
2023-07-25T01:10:39.755Z,18.00
2023-07-25T01:13:07.731Z,17.99
2023-07-25T01:15:37.392Z,17.98
2023-07-25T01:18:06.131Z,17.96
2023-07-25T01:20:36.274Z,17.94
2023-07-25T01:23:06.934Z,17.94
2023-07-25T01:25:36.104Z,17.94
2023-07-25T01:28:04.022Z,17.94
2023-07-25T01:30:31.963Z,17.91
2023-07-25T01:32:59.875Z,17.91
2023-07-25T01:35:27.667Z,17.89
2023-07-25T01:37:55.457Z,17.89
2023-07-25T01:40:23.369Z,17.88
2023-07-25T01:42:52.524Z,17.88
2023-07-25T01:45:20.412Z,17.85
2023-07-25T01:47:48.209Z,17.85
2023-07-25T01:50:16.032Z,17.83
2023-07-25T01:52:43.820Z,17.81
2023-07-25T01:55:12.000Z,17.80
2023-07-25T01:57:39.787Z,17.80
2023-07-25T02:00:10.208Z,17.79
2023-07-25T02:02:38.044Z,17.78
2023-07-25T02:05:06.502Z,17.77
2023-07-25T02:07:34.492Z,17.76
2023-07-25T02:10:02.356Z,17.75
2023-07-25T02:12:31.530Z,17.74
2023-07-25T02:14:59.322Z,17.74
2023-07-25T02:17:28.490Z,17.73
2023-07-25T02:19:56.243Z,17.71
2023-07-25T02:22:24.041Z,17.72
2023-07-25T02:24:51.989Z,17.71
2023-07-25T02:27:19.767Z,17.69
2023-07-25T02:29:47.632Z,17.69
2023-07-25T02:32:15.383Z,17.69
2023-07-25T02:34:44.469Z,17.69
2023-07-25T02:37:12.306Z,17.68
2023-07-25T02:39:40.495Z,17.68
2023-07-25T02:42:08.536Z,17.68
2023-07-25T02:44:36.318Z,17.68
2023-07-25T02:47:04.421Z,17.66
2023-07-25T02:49:32.210Z,17.67
2023-07-25T02:52:01.317Z,17.67
2023-07-25T02:54:29.033Z,17.65
2023-07-25T02:56:56.805Z,17.66
2023-07-25T02:59:24.583Z,17.65
2023-07-25T03:01:52.407Z,17.63
2023-07-25T03:04:20.154Z,17.63
2023-07-25T03:06:48.005Z,17.62
2023-07-25T03:09:17.113Z,17.61
2023-07-25T03:11:44.942Z,17.61
2023-07-25T03:14:12.689Z,17.61
2023-07-25T03:16:40.519Z,17.60
2023-07-25T03:19:08.260Z,17.57
2023-07-25T03:21:36.004Z,17.57
2023-07-25T03:24:03.809Z,17.55
2023-07-25T03:26:33.146Z,17.54
2023-07-25T03:29:00.933Z,17.54
2023-07-25T03:31:28.852Z,17.54
2023-07-25T03:33:56.820Z,17.53
2023-07-25T03:36:25.440Z,17.52
2023-07-25T03:38:53.415Z,17.51
2023-07-25T03:41:21.145Z,17.50
2023-07-25T03:43:50.274Z,17.48
2023-07-25T03:46:18.021Z,17.48
2023-07-25T03:48:45.854Z,17.46
2023-07-25T03:51:13.610Z,17.46
2023-07-25T03:53:41.348Z,17.45
2023-07-25T03:56:09.116Z,17.43
2023-07-25T03:58:36.864Z,17.43
2023-07-25T04:01:05.992Z,17.43
2023-07-25T04:03:33.871Z,17.41
2023-07-25T04:06:01.839Z,17.43
2023-07-25T04:08:29.582Z,17.41
2023-07-25T04:10:57.335Z,17.39
2023-07-25T04:13:25.110Z,17.40
2023-07-25T04:15:52.944Z,17.39
2023-07-25T04:18:22.135Z,17.39
2023-07-25T04:20:49.865Z,17.39
2023-07-25T04:23:17.784Z,17.38
2023-07-25T04:25:45.574Z,17.37
2023-07-25T04:28:13.654Z,17.37
2023-07-25T04:30:41.441Z,17.37
2023-07-25T04:33:09.212Z,17.36
2023-07-25T04:35:38.338Z,17.37
2023-07-25T04:38:06.082Z,17.35
2023-07-25T04:40:33.859Z,17.35
2023-07-25T04:43:01.632Z,17.35
2023-07-25T04:45:29.442Z,17.35
2023-07-25T04:47:57.273Z,17.25
2023-07-25T04:50:25.032Z,17.34
2023-07-25T04:52:54.164Z,17.33
2023-07-25T04:55:21.914Z,17.33
2023-07-25T04:57:51.222Z,17.32
2023-07-25T05:00:19.334Z,17.31
2023-07-25T05:02:47.247Z,17.30
2023-07-25T05:05:15.139Z,17.29
2023-07-25T05:07:42.978Z,17.26
2023-07-25T05:10:12.832Z,17.24
2023-07-25T05:12:40.616Z,17.25
2023-07-25T05:15:09.298Z,17.25
2023-07-25T05:17:37.059Z,17.26
2023-07-25T05:20:05.582Z,17.24
2023-07-25T05:22:33.325Z,17.25
2023-07-25T05:25:01.120Z,17.24
2023-07-25T05:27:30.215Z,17.21
2023-07-25T05:29:58.032Z,17.20
2023-07-25T05:32:25.867Z,17.18
2023-07-25T05:34:53.649Z,17.15
2023-07-25T05:37:21.492Z,17.14
2023-07-25T05:39:52.111Z,17.11
2023-07-25T05:42:19.881Z,17.12
2023-07-25T05:44:49.084Z,17.08
2023-07-25T05:47:16.865Z,17.07
2023-07-25T05:49:44.658Z,17.07
2023-07-25T05:52:12.389Z,17.07
2023-07-25T05:54:40.207Z,17.08
2023-07-25T05:57:08.849Z,17.09
2023-07-25T05:59:36.637Z,17.10
2023-07-25T06:02:06.302Z,17.10
2023-07-25T06:04:34.071Z,17.09
2023-07-25T06:07:01.885Z,17.07
2023-07-25T06:09:29.716Z,17.06
2023-07-25T06:11:57.734Z,17.05
2023-07-25T06:14:25.603Z,17.05
2023-07-25T06:16:53.405Z,17.04
2023-07-25T06:19:22.879Z,17.04
2023-07-25T06:21:50.875Z,17.03
2023-07-25T06:24:18.907Z,17.05
2023-07-25T06:26:46.707Z,17.05
2023-07-25T06:29:14.497Z,17.05
2023-07-25T06:31:42.703Z,17.05
2023-07-25T06:34:10.553Z,17.04
2023-07-25T06:36:39.660Z,17.04
2023-07-25T06:39:07.389Z,17.03
2023-07-25T06:41:35.239Z,17.03
2023-07-25T06:44:03.063Z,17.02
2023-07-25T06:46:30.897Z,17.02
2023-07-25T06:48:58.940Z,17.03
2023-07-25T06:51:26.822Z,17.05
2023-07-25T06:53:55.954Z,17.04
2023-07-25T06:56:23.682Z,17.08
2023-07-25T06:58:51.426Z,17.08
2023-07-25T07:01:19.250Z,17.13
2023-07-25T07:03:46.983Z,17.13
2023-07-25T07:06:14.731Z,17.13
2023-07-25T07:08:42.469Z,17.13
2023-07-25T07:11:11.581Z,17.12
2023-07-25T07:13:39.380Z,17.14
2023-07-25T07:16:07.169Z,17.18
2023-07-25T07:18:35.027Z,17.20
2023-07-25T07:21:02.786Z,17.19
2023-07-25T07:23:30.567Z,17.19
2023-07-25T07:25:58.322Z,17.20
2023-07-25T07:28:27.447Z,17.21
2023-07-25T07:30:56.440Z,17.23
2023-07-25T07:33:26.519Z,17.24
2023-07-25T07:35:54.352Z,17.24
2023-07-25T07:38:22.205Z,17.23
2023-07-25T07:40:50.066Z,17.24
2023-07-25T07:43:17.903Z,17.24
2023-07-25T07:45:47.030Z,17.24
2023-07-25T07:48:14.775Z,17.24
2023-07-25T07:50:42.523Z,17.24
2023-07-25T07:53:10.318Z,17.23
2023-07-25T07:55:38.141Z,17.18
2023-07-25T07:58:06.111Z,17.23
2023-07-25T08:00:34.266Z,17.19
2023-07-25T08:03:03.408Z,17.20
2023-07-25T08:05:31.307Z,17.21
2023-07-25T08:07:59.097Z,17.20
2023-07-25T08:10:27.041Z,17.20
2023-07-25T08:12:54.812Z,17.21
2023-07-25T08:15:22.599Z,17.22
2023-07-25T08:17:50.493Z,17.22
2023-07-25T08:20:19.760Z,17.22
2023-07-25T08:22:49.144Z,17.22
2023-07-25T08:25:17.100Z,17.21
2023-07-25T08:27:44.885Z,17.20
2023-07-25T08:30:13.285Z,17.20
2023-07-25T08:32:41.241Z,17.21
2023-07-25T08:35:09.656Z,17.21
2023-07-25T08:37:38.830Z,17.22
2023-07-25T08:40:08.322Z,17.23
2023-07-25T08:42:37.404Z,17.23
2023-07-25T08:45:08.280Z,17.22
2023-07-25T08:47:41.282Z,17.19
2023-07-25T08:50:13.871Z,17.21
2023-07-25T08:52:48.020Z,17.21
2023-07-25T08:55:16.010Z,17.22
2023-07-25T08:57:45.145Z,17.24
2023-07-25T09:00:15.095Z,17.23
2023-07-25T09:02:43.076Z,17.23
2023-07-25T09:05:12.058Z,17.26
2023-07-25T09:07:41.174Z,17.27
2023-07-25T09:10:12.241Z,17.28
2023-07-25T09:12:40.155Z,17.30
2023-07-25T09:15:08.730Z,17.32
2023-07-25T09:17:37.031Z,17.34
2023-07-25T09:20:06.862Z,17.36
2023-07-25T09:22:35.500Z,17.37
2023-07-25T09:25:10.880Z,17.38
2023-07-25T09:27:38.624Z,17.40
2023-07-25T09:30:12.941Z,17.45
2023-07-25T09:32:41.107Z,17.45
2023-07-25T09:35:10.881Z,17.48
2023-07-25T09:37:38.656Z,17.50
2023-07-25T09:40:11.939Z,17.53
2023-07-25T09:42:42.433Z,17.53
2023-07-25T09:45:11.236Z,17.55
2023-07-25T09:47:39.509Z,17.56
2023-07-25T09:50:08.562Z,17.58
2023-07-25T09:52:43.837Z,17.60
2023-07-25T09:55:12.971Z,17.61
2023-07-25T09:57:41.211Z,17.62
2023-07-25T10:00:10.680Z,17.63
2023-07-25T10:02:39.407Z,17.66
2023-07-25T10:05:09.352Z,17.57
2023-07-25T10:07:37.570Z,17.66
2023-07-25T10:10:06.194Z,17.68
2023-07-25T10:12:35.300Z,17.67
2023-07-25T10:15:03.372Z,17.68
2023-07-25T10:17:31.134Z,17.67
2023-07-25T10:19:59.264Z,17.70
2023-07-25T10:22:37.996Z,17.71
2023-07-25T10:25:11.200Z,17.72
2023-07-25T10:27:40.440Z,17.73
2023-07-25T10:30:23.893Z,17.72
2023-07-25T10:32:53.737Z,17.77
2023-07-25T10:35:43.381Z,17.80
2023-07-25T10:38:12.666Z,17.80
2023-07-25T10:40:57.612Z,17.82
2023-07-25T10:43:30.866Z,17.83
2023-07-25T10:46:02.251Z,17.86
2023-07-25T10:48:37.470Z,17.88
2023-07-25T10:51:09.429Z,17.92
2023-07-25T10:53:37.808Z,17.93
2023-07-25T10:56:16.761Z,17.95
2023-07-25T10:59:09.612Z,17.98
2023-07-25T11:01:49.255Z,18.00
2023-07-25T11:04:28.766Z,18.02
2023-07-25T11:06:58.347Z,18.06
2023-07-25T11:09:27.391Z,18.09
2023-07-25T11:11:56.371Z,18.13
2023-07-25T11:14:25.549Z,18.15
2023-07-25T11:16:54.897Z,18.12
2023-07-25T11:19:29.654Z,18.13
2023-07-25T11:21:57.589Z,18.11
2023-07-25T11:24:25.464Z,18.09
2023-07-25T11:26:53.296Z,18.09
2023-07-25T11:29:21.033Z,18.07
2023-07-25T11:31:51.172Z,18.06
2023-07-25T11:34:20.561Z,18.07
2023-07-25T11:36:48.994Z,18.08
2023-07-25T11:39:18.050Z,18.09
2023-07-25T11:41:46.820Z,18.09
2023-07-25T11:44:16.372Z,18.11
2023-07-25T11:46:46.539Z,18.13
2023-07-25T11:49:24.971Z,18.16
2023-07-25T11:52:04.706Z,18.18
2023-07-25T11:54:33.796Z,18.18
2023-07-25T11:57:02.196Z,18.17
2023-07-25T11:59:30.007Z,18.17
2023-07-25T12:02:07.058Z,18.17
2023-07-25T12:04:43.843Z,18.18
2023-07-25T12:07:11.741Z,18.20
2023-07-25T12:09:41.009Z,18.23
2023-07-25T12:12:13.710Z,18.25
2023-07-25T12:14:42.366Z,18.26
2023-07-25T12:17:10.253Z,18.28
2023-07-25T12:19:39.424Z,18.30
2023-07-25T12:22:09.196Z,18.30
2023-07-25T12:24:43.189Z,18.32
2023-07-25T12:27:17.795Z,18.32
2023-07-25T12:29:45.913Z,18.26
2023-07-25T12:32:14.111Z,18.37
2023-07-25T12:34:43.323Z,18.38
2023-07-25T12:37:11.117Z,18.38
2023-07-25T12:39:41.568Z,18.38
2023-07-25T12:42:09.462Z,18.39
2023-07-25T12:44:37.324Z,18.41
2023-07-25T12:47:05.797Z,18.43
2023-07-25T12:49:34.717Z,18.43
2023-07-25T12:52:03.902Z,18.43
2023-07-25T12:54:31.722Z,18.43
2023-07-25T12:56:59.487Z,18.47
2023-07-25T12:59:27.318Z,18.50
2023-07-25T13:01:55.477Z,18.51
2023-07-25T13:04:23.486Z,18.54
2023-07-25T13:06:51.616Z,18.59
2023-07-25T13:09:20.844Z,18.62
2023-07-25T13:11:48.689Z,18.60
2023-07-25T13:14:16.571Z,18.58
2023-07-25T13:16:44.598Z,18.57
2023-07-25T13:19:13.616Z,18.60
2023-07-25T13:21:41.445Z,18.62
2023-07-25T13:24:09.325Z,18.67
2023-07-25T13:26:38.982Z,18.67
2023-07-25T13:29:06.864Z,18.67
2023-07-25T13:31:34.954Z,18.70
2023-07-25T13:34:02.863Z,18.74
2023-07-25T13:36:30.734Z,18.75
2023-07-25T13:38:58.534Z,18.76
2023-07-25T13:41:26.380Z,18.77
2023-07-25T13:43:55.492Z,18.77
2023-07-25T13:46:23.317Z,18.76
2023-07-25T13:48:52.148Z,18.75
2023-07-25T13:51:20.063Z,18.76
2023-07-25T13:53:47.922Z,18.77
2023-07-25T13:56:15.892Z,18.80
2023-07-25T13:58:43.908Z,18.81
2023-07-25T14:01:13.113Z,18.82
2023-07-25T14:03:40.925Z,18.83
2023-07-25T14:06:08.653Z,18.84
2023-07-25T14:08:36.473Z,18.84
2023-07-25T14:11:04.345Z,18.85
2023-07-25T14:13:32.759Z,18.87
2023-07-25T14:16:01.349Z,18.87
2023-07-25T14:18:30.588Z,18.85
2023-07-25T14:21:00.602Z,18.86
2023-07-25T14:23:28.526Z,18.88
2023-07-25T14:25:56.401Z,18.89
2023-07-25T14:28:24.297Z,18.88
2023-07-25T14:30:52.289Z,18.91
2023-07-25T14:33:21.764Z,18.94
2023-07-25T14:35:51.412Z,18.93
2023-07-25T14:38:19.772Z,18.93
2023-07-25T14:40:47.937Z,18.90
2023-07-25T14:43:15.736Z,18.88
2023-07-25T14:45:43.546Z,18.92
2023-07-25T14:48:11.473Z,18.92
2023-07-25T14:50:40.851Z,18.91
2023-07-25T14:53:10.291Z,18.90
2023-07-25T14:55:38.093Z,18.91
2023-07-25T14:58:05.970Z,18.92
2023-07-25T15:00:33.964Z,18.93
2023-07-25T15:03:01.952Z,18.92
2023-07-25T15:05:29.938Z,18.93
2023-07-25T15:07:57.738Z,18.94
2023-07-25T15:10:27.250Z,18.94
2023-07-25T15:12:56.305Z,18.91
2023-07-25T15:15:24.181Z,18.91
2023-07-25T15:17:52.367Z,18.91
2023-07-25T15:20:21.680Z,18.91
2023-07-25T15:22:49.703Z,18.91
2023-07-25T15:25:17.526Z,18.89
2023-07-25T15:27:46.742Z,18.91
2023-07-25T15:30:14.569Z,18.90
2023-07-25T15:32:42.472Z,18.90
2023-07-25T15:35:11.382Z,18.85
2023-07-25T15:37:39.498Z,18.89
2023-07-25T15:40:09.198Z,18.90
2023-07-25T15:42:36.958Z,18.92
2023-07-25T15:45:07.491Z,18.92
2023-07-25T15:47:35.352Z,18.89
2023-07-25T15:50:03.477Z,18.90
2023-07-25T15:52:31.389Z,18.91
2023-07-25T15:55:00.073Z,18.88
2023-07-25T15:57:27.984Z,18.87
2023-07-25T15:59:55.832Z,18.87
2023-07-25T16:02:25.151Z,18.83
2023-07-25T16:04:52.978Z,18.82
2023-07-25T16:07:20.746Z,18.83
2023-07-25T16:09:48.488Z,18.85
2023-07-25T16:12:16.915Z,18.82
2023-07-25T16:14:44.751Z,18.85
2023-07-25T16:17:12.777Z,18.84
2023-07-25T16:19:42.360Z,18.84
2023-07-25T16:22:10.224Z,18.84
2023-07-25T16:24:38.152Z,18.84
2023-07-25T16:27:06.556Z,18.84
2023-07-25T16:29:34.419Z,18.86
2023-07-25T16:32:02.380Z,18.87
2023-07-25T16:34:31.518Z,18.86
2023-07-25T16:37:00.664Z,18.84
2023-07-25T16:39:28.720Z,18.82
2023-07-25T16:41:56.836Z,18.81
2023-07-25T16:44:24.833Z,18.80
2023-07-25T16:46:52.619Z,18.77
2023-07-25T16:49:20.482Z,18.76
2023-07-25T16:51:48.383Z,18.75
2023-07-25T16:54:17.975Z,18.70
2023-07-25T16:56:45.973Z,18.66
2023-07-25T16:59:13.737Z,18.74
2023-07-25T17:01:41.545Z,18.64
2023-07-25T17:04:09.343Z,18.72
2023-07-25T17:06:37.235Z,18.69
2023-07-25T17:09:05.500Z,18.68
2023-07-25T17:11:35.723Z,18.68
2023-07-25T17:14:03.944Z,18.68
2023-07-25T17:16:31.916Z,18.71
2023-07-25T17:18:59.748Z,18.69
2023-07-25T17:21:39.411Z,18.69
2023-07-25T17:24:09.044Z,18.68
2023-07-25T17:26:38.834Z,18.68
2023-07-25T17:29:07.135Z,18.69
2023-07-25T17:31:35.602Z,18.67
2023-07-25T17:34:04.166Z,18.69
2023-07-25T17:36:32.081Z,18.70
2023-07-25T17:38:59.874Z,18.68
2023-07-25T17:41:27.701Z,18.67
2023-07-25T17:43:56.906Z,18.66
2023-07-25T17:46:24.759Z,18.64
2023-07-25T17:48:54.510Z,18.64
2023-07-25T17:51:22.457Z,18.64
2023-07-25T17:53:50.227Z,18.65
2023-07-25T17:56:18.076Z,18.68
2023-07-25T17:58:45.923Z,18.68
2023-07-25T18:01:15.274Z,18.68
2023-07-25T18:03:43.224Z,18.66
2023-07-25T18:06:11.018Z,18.65
2023-07-25T18:08:39.200Z,18.66
2023-07-25T18:11:07.263Z,18.66
2023-07-25T18:13:35.079Z,18.64
2023-07-25T18:16:02.955Z,18.63
2023-07-25T18:18:32.234Z,18.64
2023-07-25T18:21:00.006Z,18.63
2023-07-25T18:23:27.772Z,18.64
2023-07-25T18:26:01.119Z,18.64
2023-07-25T18:28:29.044Z,18.66
2023-07-25T18:30:56.853Z,18.66
2023-07-25T18:33:24.781Z,18.69
2023-07-25T18:35:53.957Z,18.69
2023-07-25T18:38:21.809Z,18.68
2023-07-25T18:40:49.678Z,18.67
2023-07-25T18:43:20.506Z,18.67
2023-07-25T18:45:48.435Z,18.66
2023-07-25T18:48:16.269Z,18.66
2023-07-25T18:50:44.700Z,18.64
2023-07-25T18:53:13.944Z,18.64
2023-07-25T18:55:42.408Z,18.62
2023-07-25T18:58:10.284Z,18.60
2023-07-25T19:00:38.170Z,18.58
2023-07-25T19:03:06.029Z,18.57
2023-07-25T19:05:34.002Z,18.56
2023-07-25T19:08:01.848Z,18.53
2023-07-25T19:10:31.185Z,18.53
2023-07-25T19:12:59.019Z,18.48
2023-07-25T19:15:27.013Z,18.50
2023-07-25T19:17:54.877Z,18.46
2023-07-25T19:20:22.655Z,18.44
2023-07-25T19:22:50.420Z,18.43
2023-07-25T19:25:18.248Z,18.44
2023-07-25T19:27:49.236Z,18.44
2023-07-25T19:30:17.291Z,18.43
2023-07-25T19:32:45.839Z,18.43
2023-07-25T19:35:13.685Z,18.41
2023-07-25T19:37:41.498Z,18.41
2023-07-25T19:40:10.679Z,18.41
2023-07-25T19:42:38.587Z,18.40
2023-07-25T19:45:08.964Z,18.39
2023-07-25T19:47:36.839Z,18.39
2023-07-25T19:50:04.933Z,18.39
2023-07-25T19:52:32.714Z,18.38
2023-07-25T19:55:00.588Z,18.37
2023-07-25T19:57:28.400Z,18.36
2023-07-25T19:59:56.158Z,18.34
2023-07-25T20:02:25.360Z,18.33
2023-07-25T20:04:53.306Z,18.31
2023-07-25T20:07:21.111Z,18.30
2023-07-25T20:09:49.177Z,18.31
2023-07-25T20:12:17.030Z,18.30
2023-07-25T20:14:44.856Z,18.30
2023-07-25T20:17:12.612Z,18.30
2023-07-25T20:19:41.767Z,18.29
2023-07-25T20:22:09.575Z,18.29
2023-07-25T20:24:37.412Z,18.29
2023-07-25T20:27:05.629Z,18.28
2023-07-25T20:29:33.546Z,18.28
2023-07-25T20:32:01.404Z,18.28
2023-07-25T20:34:29.274Z,18.28
2023-07-25T20:36:58.952Z,18.28
2023-07-25T20:39:26.784Z,18.27
2023-07-25T20:41:54.547Z,18.26
2023-07-25T20:44:22.470Z,18.27
2023-07-25T20:46:50.453Z,18.25
2023-07-25T20:49:18.309Z,18.25
2023-07-25T20:51:46.117Z,18.24
2023-07-25T20:54:15.301Z,18.23
2023-07-25T20:56:43.080Z,18.21
2023-07-25T20:59:14.776Z,18.23
2023-07-25T21:01:42.958Z,18.20
2023-07-25T21:04:10.925Z,18.21
2023-07-25T21:06:38.725Z,18.20
2023-07-25T21:09:06.510Z,18.19
2023-07-25T21:11:35.694Z,18.19
2023-07-25T21:14:03.532Z,18.19
2023-07-25T21:16:31.977Z,18.17
2023-07-25T21:19:00.082Z,18.18
2023-07-25T21:21:28.009Z,18.17
2023-07-25T21:23:55.804Z,18.17
2023-07-25T21:26:23.678Z,18.16
2023-07-25T21:28:52.807Z,18.17
2023-07-25T21:31:20.634Z,18.15
2023-07-25T21:33:48.651Z,18.16
2023-07-25T21:36:16.760Z,18.14
2023-07-25T21:38:44.711Z,18.14
2023-07-25T21:41:14.229Z,18.13
2023-07-25T21:43:42.988Z,18.13
2023-07-25T21:46:12.184Z,18.12
2023-07-25T21:48:40.011Z,18.11
2023-07-25T21:51:08.835Z,18.12
2023-07-25T21:53:36.713Z,18.10
2023-07-25T21:56:04.792Z,18.09
2023-07-25T21:58:32.648Z,18.10
2023-07-25T22:01:00.814Z,18.07
2023-07-25T22:03:30.572Z,18.08
2023-07-25T22:06:00.093Z,18.08
2023-07-25T22:08:27.938Z,18.05
2023-07-25T22:10:56.643Z,18.03
2023-07-25T22:13:24.954Z,18.04
2023-07-25T22:15:52.891Z,18.05
2023-07-25T22:18:20.652Z,18.04
2023-07-25T22:20:52.773Z,18.04
2023-07-25T22:23:21.603Z,18.03
2023-07-25T22:25:49.758Z,18.03
2023-07-25T22:28:17.603Z,18.02
2023-07-25T22:30:45.427Z,18.02
2023-07-25T22:33:13.211Z,18.02
2023-07-25T22:35:41.046Z,18.02
2023-07-25T22:38:10.198Z,18.00
2023-07-25T22:40:37.973Z,18.01
2023-07-25T22:43:06.213Z,18.01
2023-07-25T22:45:34.061Z,18.00
2023-07-25T22:48:01.961Z,17.99
2023-07-25T22:50:29.771Z,17.99
2023-07-25T22:52:57.556Z,17.99
2023-07-25T22:55:26.700Z,17.99
2023-07-25T22:57:54.860Z,17.99
2023-07-25T23:00:22.707Z,17.99
2023-07-25T23:02:52.484Z,17.97
2023-07-25T23:05:20.496Z,17.97
2023-07-25T23:07:48.327Z,17.97
2023-07-25T23:10:16.580Z,17.96
2023-07-25T23:12:45.838Z,17.89
2023-07-25T23:15:14.521Z,17.96
2023-07-25T23:17:42.386Z,17.93
2023-07-25T23:20:10.980Z,17.93
2023-07-25T23:22:38.858Z,17.93
2023-07-25T23:25:07.456Z,17.92
2023-07-25T23:27:35.273Z,17.92
2023-07-25T23:30:05.235Z,17.93
2023-07-25T23:32:33.055Z,17.92
2023-07-25T23:35:00.810Z,17.92
2023-07-25T23:37:28.602Z,17.91
2023-07-25T23:39:56.529Z,17.91
2023-07-25T23:42:24.346Z,17.91
2023-07-25T23:44:52.173Z,17.92
2023-07-25T23:47:21.340Z,17.91
2023-07-25T23:49:49.166Z,17.89
2023-07-25T23:52:16.948Z,17.89
2023-07-25T23:54:44.783Z,17.88
2023-07-25T23:57:13.203Z,17.88
2023-07-25T23:59:40.988Z,17.88
